createdAt,value
2022-12-04T00:01:14.366Z,18.92
2022-12-04T00:03:42.381Z,18.60
2022-12-04T00:06:12.553Z,17.20
2022-12-04T00:08:42.680Z,17.58
2022-12-04T00:11:12.042Z,18.23
2022-12-04T00:13:40.188Z,17.63
2022-12-04T00:16:09.226Z,18.02
2022-12-04T00:18:37.115Z,19.15
2022-12-04T00:21:06.214Z,17.95
2022-12-04T00:23:35.036Z,16.67
2022-12-04T00:26:05.758Z,18.38
2022-12-04T00:28:33.745Z,17.50
2022-12-04T00:31:01.619Z,17.73
2022-12-04T00:33:29.490Z,15.95
2022-12-04T00:36:00.476Z,17.77
2022-12-04T00:38:28.723Z,17.25
2022-12-04T00:40:56.870Z,18.80
2022-12-04T00:43:26.051Z,17.05
2022-12-04T00:45:53.998Z,16.25
2022-12-04T00:48:21.998Z,16.60
2022-12-04T00:50:50.049Z,17.65
2022-12-04T00:53:18.553Z,17.45
2022-12-04T00:55:46.592Z,16.70
2022-12-04T00:58:14.633Z,15.57
2022-12-04T01:00:44.088Z,16.30
2022-12-04T01:03:12.290Z,15.25
2022-12-04T01:05:41.310Z,14.25
2022-12-04T01:08:10.069Z,15.02
2022-12-04T01:10:39.355Z,15.77
2022-12-04T01:13:07.293Z,14.07
2022-12-04T01:15:35.209Z,12.20
2022-12-04T01:18:04.517Z,14.05
2022-12-04T01:20:33.109Z,15.70
2022-12-04T01:23:00.991Z,15.27
2022-12-04T01:25:28.861Z,14.70
2022-12-04T01:27:56.741Z,14.38
2022-12-04T01:30:24.660Z,11.38
2022-12-04T01:32:53.986Z,14.43
2022-12-04T01:35:23.200Z,12.90
2022-12-04T01:37:51.032Z,14.73
2022-12-04T01:40:18.892Z,13.57
2022-12-04T01:42:46.742Z,11.73
2022-12-04T01:45:39.573Z,13.52
2022-12-04T01:48:14.746Z,12.60
2022-12-04T01:50:45.378Z,12.57
2022-12-04T01:53:13.862Z,13.70
2022-12-04T01:55:41.942Z,13.60
2022-12-04T01:58:10.424Z,13.63
2022-12-04T02:00:38.305Z,13.80
2022-12-04T02:03:06.230Z,16.00
2022-12-04T02:05:34.102Z,14.85
2022-12-04T02:08:05.833Z,13.93
2022-12-04T02:10:40.286Z,15.20
2022-12-04T02:13:13.352Z,14.10
2022-12-04T02:15:46.091Z,15.25
2022-12-04T02:18:20.066Z,12.88
2022-12-04T02:20:53.280Z,14.98
2022-12-04T02:23:32.100Z,12.93
2022-12-04T02:26:05.505Z,14.85
2022-12-04T02:28:38.415Z,13.93
2022-12-04T02:33:38.662Z,13.30
2022-12-04T02:36:08.924Z,14.32
2022-12-04T02:38:38.943Z,12.82
2022-12-04T02:41:11.926Z,14.60
2022-12-04T02:46:12.918Z,14.35
2022-12-04T02:48:43.044Z,14.32
2022-12-04T02:51:13.652Z,14.80
2022-12-04T02:53:43.954Z,15.73
2022-12-04T02:56:13.852Z,15.18
2022-12-04T02:58:46.421Z,12.65
2022-12-04T03:01:23.914Z,14.10
2022-12-04T03:03:54.377Z,13.65
2022-12-04T03:06:23.445Z,15.60
2022-12-04T03:08:57.123Z,13.98
2022-12-04T03:11:26.068Z,12.50
2022-12-04T03:13:58.369Z,14.93
2022-12-04T03:16:30.322Z,16.05
2022-12-04T03:19:01.159Z,16.00
2022-12-04T03:21:32.187Z,16.23
2022-12-04T03:24:04.415Z,16.90
2022-12-04T03:26:35.925Z,15.85
2022-12-04T03:29:09.181Z,16.10
2022-12-04T03:31:41.807Z,14.85
2022-12-04T03:34:11.145Z,14.88
2022-12-04T03:36:42.481Z,14.82
2022-12-04T03:39:20.093Z,15.13
2022-12-04T03:41:55.941Z,15.85
2022-12-04T03:44:27.775Z,15.68
2022-12-04T03:46:58.418Z,14.65
2022-12-04T03:49:30.508Z,14.32
2022-12-04T03:52:00.673Z,14.88
2022-12-04T03:54:31.473Z,15.35
2022-12-04T03:57:02.187Z,17.40
2022-12-04T03:59:36.463Z,16.67
2022-12-04T04:02:06.138Z,17.90
2022-12-04T04:04:36.797Z,16.58
2022-12-04T04:07:45.482Z,16.60
2022-12-04T04:10:15.844Z,15.02
2022-12-04T04:12:45.870Z,16.58
2022-12-04T04:15:34.478Z,15.80
2022-12-04T04:18:21.096Z,17.75
2022-12-04T04:21:08.944Z,18.02
2022-12-04T04:23:57.766Z,19.60
2022-12-04T04:26:27.906Z,17.60
2022-12-04T04:28:55.824Z,18.10
2022-12-04T04:31:30.833Z,15.35
2022-12-04T04:34:05.357Z,17.17
2022-12-04T04:36:38.710Z,15.88
2022-12-04T04:39:12.483Z,17.52
2022-12-04T04:41:43.470Z,17.35
2022-12-04T04:44:19.965Z,17.50
2022-12-04T04:46:52.738Z,17.48
2022-12-04T04:49:21.353Z,18.08
2022-12-04T04:51:49.488Z,14.73
2022-12-04T04:54:18.286Z,17.10
2022-12-04T04:56:48.124Z,14.40
2022-12-04T04:59:16.341Z,16.77
2022-12-04T05:01:46.554Z,17.17
2022-12-04T05:04:16.119Z,15.07
2022-12-04T05:06:44.067Z,19.38
2022-12-04T05:09:11.880Z,18.25
2022-12-04T05:11:39.836Z,18.48
2022-12-04T05:14:09.533Z,18.52
2022-12-04T05:16:37.652Z,18.10
2022-12-04T05:19:23.213Z,17.70
2022-12-04T05:21:52.467Z,16.90
2022-12-04T05:24:20.326Z,17.38
2022-12-04T05:26:48.322Z,17.88
2022-12-04T05:29:16.223Z,18.95
2022-12-04T05:31:44.279Z,17.38
2022-12-04T05:34:12.231Z,17.17
2022-12-04T05:36:40.119Z,16.58
2022-12-04T05:39:09.639Z,19.88
2022-12-04T05:41:37.473Z,16.58
2022-12-04T05:44:05.351Z,17.70
2022-12-04T05:46:33.225Z,19.13
2022-12-04T05:49:01.114Z,18.40
2022-12-04T05:51:29.035Z,19.17
2022-12-04T05:53:56.878Z,17.05
2022-12-04T05:56:37.639Z,18.98
2022-12-04T05:59:09.011Z,17.48
2022-12-04T06:01:37.700Z,17.65
2022-12-04T06:04:05.830Z,17.75
2022-12-04T06:06:33.920Z,17.83
2022-12-04T06:09:02.057Z,18.55
2022-12-04T06:11:33.025Z,18.42
2022-12-04T06:14:02.011Z,17.83
2022-12-04T06:16:31.418Z,19.85
2022-12-04T06:19:00.397Z,18.35
2022-12-04T06:21:30.656Z,18.88
2022-12-04T06:23:59.116Z,19.35
2022-12-04T06:26:27.545Z,20.05
2022-12-04T06:28:58.221Z,20.55
2022-12-04T06:31:27.393Z,19.30
2022-12-04T06:33:56.073Z,20.50
2022-12-04T06:36:24.731Z,18.38
2022-12-04T06:38:53.393Z,19.77
2022-12-04T06:41:22.102Z,18.85
2022-12-04T06:43:51.688Z,19.33
2022-12-04T06:46:22.706Z,19.20
2022-12-04T06:48:51.060Z,19.85
2022-12-04T06:51:21.011Z,18.10
2022-12-04T06:53:49.369Z,17.40
2022-12-04T06:56:18.928Z,17.17
2022-12-04T06:58:47.016Z,19.58
2022-12-04T07:01:17.643Z,18.17
2022-12-04T07:03:51.285Z,16.48
2022-12-04T07:06:21.592Z,20.60
2022-12-04T07:08:51.924Z,18.98
2022-12-04T07:11:21.353Z,18.98
2022-12-04T07:13:49.425Z,19.95
2022-12-04T07:16:19.728Z,19.48
2022-12-04T07:18:50.310Z,18.33
2022-12-04T07:21:20.711Z,20.25
2022-12-04T07:23:50.244Z,18.63
2022-12-04T07:26:18.305Z,19.30
2022-12-04T07:28:46.369Z,19.45
2022-12-04T07:31:16.115Z,18.85
2022-12-04T07:33:44.346Z,19.45
2022-12-04T07:36:15.988Z,18.35
2022-12-04T07:38:44.139Z,18.63
2022-12-04T07:41:13.262Z,19.58
2022-12-04T07:43:41.861Z,21.50
2022-12-04T07:46:11.875Z,19.60
2022-12-04T07:48:40.057Z,19.48
2022-12-04T07:51:10.041Z,20.85
2022-12-04T07:53:39.807Z,18.23
2022-12-04T07:56:08.884Z,20.48
2022-12-04T07:58:37.169Z,19.35
2022-12-04T08:01:09.700Z,20.60
2022-12-04T08:03:42.119Z,21.13
2022-12-04T08:06:13.251Z,19.65
2022-12-04T08:08:42.548Z,20.67
2022-12-04T08:11:12.118Z,19.48
2022-12-04T08:13:40.140Z,20.80
2022-12-04T08:16:09.840Z,19.45
2022-12-04T08:18:38.005Z,19.88
2022-12-04T08:21:07.155Z,19.50
2022-12-04T08:23:35.570Z,20.85
2022-12-04T08:26:06.164Z,20.88
2022-12-04T08:28:34.754Z,19.38
2022-12-04T08:31:06.709Z,19.95
2022-12-04T08:33:35.183Z,19.83
2022-12-04T08:36:03.444Z,20.30
2022-12-04T08:38:31.333Z,18.75
2022-12-04T08:41:01.260Z,19.15
2022-12-04T08:43:30.983Z,19.13
2022-12-04T08:45:59.660Z,19.58
2022-12-04T08:48:28.050Z,18.30
2022-12-04T08:50:56.644Z,19.48
2022-12-04T08:53:24.873Z,20.27
2022-12-04T08:55:53.376Z,20.33
2022-12-04T08:58:21.396Z,19.58
2022-12-04T09:00:50.775Z,20.10
2022-12-04T09:03:21.707Z,20.27
2022-12-04T09:05:51.507Z,18.13
2022-12-04T09:08:19.468Z,19.42
2022-12-04T09:10:47.412Z,17.52
2022-12-04T09:13:15.305Z,19.80
2022-12-04T09:15:43.329Z,19.13
2022-12-04T09:18:12.648Z,19.92
2022-12-04T09:20:40.566Z,18.88
2022-12-04T09:23:08.771Z,18.70
2022-12-04T09:25:37.496Z,19.25
2022-12-04T09:28:05.685Z,20.08
2022-12-04T09:30:33.539Z,19.63
2022-12-04T09:33:01.460Z,16.73
2022-12-04T09:35:31.021Z,18.63
2022-12-04T09:37:59.297Z,18.60
2022-12-04T09:40:36.909Z,19.98
2022-12-04T09:43:20.853Z,19.52
2022-12-04T09:45:55.225Z,19.27
2022-12-04T09:48:34.117Z,21.42
2022-12-04T09:51:04.845Z,18.83
2022-12-04T09:53:41.421Z,20.27
2022-12-04T09:56:12.868Z,18.17
2022-12-04T09:58:43.951Z,19.70
2022-12-04T10:01:21.064Z,18.83
2022-12-04T10:03:49.198Z,19.10
2022-12-04T10:06:21.296Z,18.02
2022-12-04T10:08:52.776Z,19.98
2022-12-04T10:11:32.334Z,19.02
2022-12-04T10:14:10.986Z,18.80
2022-12-04T10:17:03.542Z,17.15
2022-12-04T10:19:36.577Z,20.17
2022-12-04T10:24:43.284Z,17.50
2022-12-04T10:27:19.826Z,17.52
2022-12-04T10:29:50.522Z,17.15
2022-12-04T10:32:21.403Z,16.77
2022-12-04T10:34:51.993Z,20.00
2022-12-04T10:37:21.393Z,17.88
2022-12-04T10:39:53.459Z,16.90
2022-12-04T10:42:37.849Z,15.15
2022-12-04T10:45:07.236Z,18.90
2022-12-04T10:47:35.947Z,19.73
2022-12-04T10:50:13.223Z,18.60
2022-12-04T10:52:42.517Z,19.58
2022-12-04T10:55:10.988Z,17.48
2022-12-04T10:57:40.784Z,18.70
2022-12-04T11:00:28.153Z,17.98
2022-12-04T11:02:57.714Z,17.45
2022-12-04T11:05:29.083Z,17.73
2022-12-04T11:08:00.285Z,14.68
2022-12-04T11:10:33.849Z,15.35
2022-12-04T11:13:03.220Z,17.33
2022-12-04T11:15:31.511Z,15.57
2022-12-04T11:18:08.997Z,15.85
2022-12-04T11:20:37.047Z,13.45
2022-12-04T11:23:06.483Z,16.17
2022-12-04T11:25:37.984Z,17.05
2022-12-04T11:28:06.279Z,14.45
2022-12-04T11:30:36.508Z,14.70
2022-12-04T11:33:06.813Z,17.08
2022-12-04T11:35:35.172Z,14.27
2022-12-04T11:38:08.915Z,14.95
2022-12-04T11:40:37.371Z,15.35
2022-12-04T11:43:07.113Z,16.17
2022-12-04T11:45:35.276Z,13.68
2022-12-04T11:48:04.945Z,14.75
2022-12-04T11:50:39.631Z,13.48
2022-12-04T11:53:17.183Z,14.30
2022-12-04T11:55:54.176Z,15.35
2022-12-04T11:58:33.124Z,14.88
2022-12-04T12:01:13.932Z,13.88
2022-12-04T12:03:45.468Z,14.82
2022-12-04T12:06:21.228Z,13.57
2022-12-04T12:09:03.014Z,13.15
2022-12-04T12:11:34.221Z,14.20
2022-12-04T12:14:08.571Z,13.10
2022-12-04T12:16:49.942Z,13.88
2022-12-04T12:19:37.946Z,12.88
2022-12-04T12:22:12.395Z,13.73
2022-12-04T12:24:49.909Z,13.77
2022-12-04T12:27:30.850Z,13.43
2022-12-04T12:30:04.410Z,13.02
2022-12-04T12:32:52.252Z,14.57
2022-12-04T12:35:23.362Z,12.32
2022-12-04T12:37:53.921Z,13.27
2022-12-04T12:40:29.771Z,13.45
2022-12-04T12:43:01.270Z,13.75
2022-12-04T12:45:36.873Z,12.57
2022-12-04T12:48:09.302Z,12.60
2022-12-04T12:50:44.145Z,13.38
2022-12-04T12:53:16.527Z,13.55
2022-12-04T12:55:47.242Z,12.95
2022-12-04T12:58:19.527Z,11.38
2022-12-04T13:00:52.397Z,11.48
2022-12-04T13:03:27.388Z,12.75
2022-12-04T13:05:58.341Z,11.32
2022-12-04T13:08:29.601Z,13.30
2022-12-04T13:11:04.178Z,12.75
2022-12-04T13:13:34.454Z,11.73
2022-12-04T13:16:07.835Z,12.90
2022-12-04T13:18:40.273Z,13.38
2022-12-04T13:21:09.152Z,10.73
2022-12-04T13:23:50.205Z,12.57
2022-12-04T13:26:28.146Z,8.20
2022-12-04T13:29:01.544Z,11.02
2022-12-04T13:31:34.356Z,11.50
2022-12-04T13:34:21.878Z,10.35
2022-12-04T13:36:59.693Z,10.57
2022-12-04T13:39:51.338Z,11.57
2022-12-04T13:42:24.924Z,9.73
2022-12-04T13:44:55.409Z,12.82
2022-12-04T13:47:33.243Z,13.98
2022-12-04T13:50:10.932Z,11.75
2022-12-04T13:52:40.840Z,13.60
2022-12-04T13:55:25.192Z,12.40
2022-12-04T13:58:00.074Z,10.88
2022-12-04T14:00:31.758Z,14.18
2022-12-04T14:03:02.514Z,13.32
2022-12-04T14:05:33.133Z,13.10
2022-12-04T14:08:07.909Z,12.27
2022-12-04T14:10:38.265Z,13.15
2022-12-04T14:13:16.474Z,10.90
2022-12-04T14:15:44.732Z,12.35
2022-12-04T14:18:20.632Z,11.63
2022-12-04T14:21:01.023Z,11.02
2022-12-04T14:23:35.440Z,10.38
2022-12-04T14:26:05.229Z,12.25
2022-12-04T14:28:44.438Z,15.48
2022-12-04T14:31:27.322Z,12.02
2022-12-04T14:33:58.405Z,14.40
2022-12-04T14:36:28.180Z,15.25
2022-12-04T14:39:13.016Z,13.93
2022-12-04T14:41:40.960Z,13.25
2022-12-04T14:44:23.149Z,15.68
2022-12-04T14:46:52.678Z,14.23
2022-12-04T14:49:31.389Z,15.38
2022-12-04T14:52:05.481Z,14.15
2022-12-04T14:54:38.586Z,16.23
2022-12-04T14:57:18.968Z,15.85
2022-12-04T14:59:49.570Z,17.02
2022-12-04T15:02:19.733Z,17.10
2022-12-04T15:04:48.774Z,16.17
2022-12-04T15:07:21.114Z,17.27
2022-12-04T15:10:10.304Z,12.52
2022-12-04T15:12:44.028Z,14.40
2022-12-04T15:15:21.903Z,14.35
2022-12-04T15:18:00.647Z,16.33
2022-12-04T15:20:33.376Z,15.30
2022-12-04T15:23:05.417Z,14.20
2022-12-04T15:25:37.438Z,14.88
2022-12-04T15:28:09.838Z,15.87
2022-12-04T15:30:40.990Z,15.25
2022-12-04T15:33:19.287Z,16.27
2022-12-04T15:35:52.410Z,16.15
2022-12-04T15:38:20.423Z,17.95
2022-12-04T15:40:53.567Z,16.13
2022-12-04T15:43:27.322Z,18.58
2022-12-04T15:45:56.743Z,17.08
2022-12-04T15:48:29.776Z,17.65
2022-12-04T15:53:32.858Z,13.50
2022-12-04T15:56:03.253Z,13.93
2022-12-04T15:58:32.571Z,16.50
2022-12-04T16:01:03.311Z,16.42
2022-12-04T16:03:32.908Z,16.95
2022-12-04T16:06:09.498Z,18.40
2022-12-04T16:08:39.459Z,15.35
2022-12-04T16:11:08.745Z,17.20
2022-12-04T16:13:38.462Z,16.52
2022-12-04T16:16:11.413Z,16.00
2022-12-04T16:21:07.641Z,18.63
2022-12-04T16:23:35.460Z,19.42
2022-12-04T16:26:03.323Z,16.30
2022-12-04T16:28:31.139Z,18.58
2022-12-04T16:30:59.047Z,17.98
2022-12-04T16:33:28.353Z,16.85
2022-12-04T16:35:56.492Z,17.23
2022-12-04T16:38:24.353Z,17.70
2022-12-04T16:40:52.173Z,16.42
2022-12-04T16:43:20.087Z,16.98
2022-12-04T16:45:49.382Z,18.95
2022-12-04T16:48:17.234Z,18.05
2022-12-04T16:50:47.068Z,20.35
2022-12-04T16:53:17.626Z,17.23
2022-12-04T16:55:46.736Z,19.90
2022-12-04T16:58:15.345Z,19.20
2022-12-04T17:00:44.405Z,17.77
2022-12-04T17:03:18.434Z,16.15
2022-12-04T17:05:47.698Z,18.20
2022-12-04T17:08:15.581Z,16.23
2022-12-04T17:10:43.443Z,17.60
2022-12-04T17:13:11.559Z,20.20
2022-12-04T17:15:39.444Z,19.60
2022-12-04T17:18:11.944Z,18.05
2022-12-04T17:20:41.713Z,18.63
2022-12-04T17:23:12.269Z,18.30
2022-12-04T17:25:40.154Z,15.77
2022-12-04T17:28:08.157Z,19.83
2022-12-04T17:30:36.652Z,18.10
2022-12-04T17:33:05.509Z,15.23
2022-12-04T17:35:33.397Z,17.75
2022-12-04T17:38:05.926Z,16.05
2022-12-04T17:40:35.556Z,16.13
2022-12-04T17:43:03.462Z,17.48
2022-12-04T17:45:31.826Z,16.83
2022-12-04T17:48:00.461Z,16.77
2022-12-04T17:50:28.346Z,17.40
2022-12-04T17:52:56.842Z,17.88
2022-12-04T17:55:24.754Z,13.77
2022-12-04T17:57:53.965Z,16.52
2022-12-04T18:00:21.887Z,16.23
2022-12-04T18:02:53.120Z,15.63
2022-12-04T18:05:21.694Z,15.30
2022-12-04T18:07:49.791Z,15.82
2022-12-04T18:10:18.196Z,15.63
2022-12-04T18:12:46.096Z,16.55
2022-12-04T18:15:15.321Z,15.88
2022-12-04T18:17:43.471Z,12.93
2022-12-04T18:20:11.764Z,13.10
2022-12-04T18:22:39.771Z,15.98
2022-12-04T18:25:09.016Z,15.77
2022-12-04T18:27:41.702Z,15.18
2022-12-04T18:30:12.129Z,14.38
2022-12-04T18:32:41.445Z,13.75
2022-12-04T18:35:11.388Z,14.82
2022-12-04T18:37:40.207Z,13.52
2022-12-04T18:40:09.506Z,14.13
2022-12-04T18:42:38.151Z,12.73
2022-12-04T18:45:07.042Z,14.52
2022-12-04T18:47:36.470Z,14.90
2022-12-04T18:50:09.054Z,13.95
2022-12-04T18:52:38.369Z,14.27
2022-12-04T18:55:06.498Z,14.68
2022-12-04T18:57:34.337Z,13.95
2022-12-04T19:00:02.369Z,13.40
2022-12-04T19:02:30.471Z,13.18
2022-12-04T19:04:58.369Z,11.77
2022-12-04T19:07:27.551Z,12.75
2022-12-04T19:10:10.901Z,14.45
2022-12-04T19:12:39.177Z,13.38
2022-12-04T19:15:08.080Z,13.07
2022-12-04T19:17:35.958Z,13.68
2022-12-04T19:20:03.853Z,11.55
2022-12-04T19:22:33.060Z,14.77
2022-12-04T19:25:01.173Z,13.60
2022-12-04T19:27:28.987Z,14.13
2022-12-04T19:29:57.093Z,13.77
2022-12-04T19:32:25.397Z,13.68
2022-12-04T19:34:53.320Z,12.63
2022-12-04T19:37:21.223Z,13.50
2022-12-04T19:39:50.445Z,12.13
2022-12-04T19:42:18.302Z,12.68
2022-12-04T19:44:48.719Z,12.52
2022-12-04T19:47:17.177Z,12.73
2022-12-04T19:49:45.037Z,12.02
2022-12-04T19:52:13.003Z,12.93
2022-12-04T19:54:41.074Z,12.95
2022-12-04T19:57:10.372Z,13.32
2022-12-04T19:59:41.844Z,11.50
2022-12-04T20:02:12.945Z,12.30
2022-12-04T20:04:40.862Z,10.93
2022-12-04T20:07:08.681Z,11.32
2022-12-04T20:09:36.602Z,10.43
2022-12-04T20:12:04.957Z,11.85
2022-12-04T20:14:34.250Z,9.77
2022-12-04T20:17:04.067Z,11.10
2022-12-04T20:19:32.274Z,10.50
2022-12-04T20:22:00.097Z,10.63
2022-12-04T20:24:28.625Z,9.38
2022-12-04T20:26:56.529Z,10.10
2022-12-04T20:29:24.327Z,9.73
2022-12-04T20:31:53.734Z,9.73
2022-12-04T20:34:21.605Z,10.52
2022-12-04T20:36:50.015Z,10.93
2022-12-04T20:39:19.516Z,10.90
2022-12-04T20:41:47.909Z,11.48
2022-12-04T20:44:17.635Z,10.77
2022-12-04T20:46:45.857Z,11.10
2022-12-04T20:49:21.674Z,11.90
2022-12-04T20:51:51.488Z,12.18
2022-12-04T20:54:20.705Z,11.95
2022-12-04T20:56:49.406Z,11.77
2022-12-04T20:59:18.577Z,11.00
2022-12-04T21:01:46.767Z,12.25
2022-12-04T21:04:17.784Z,13.27
2022-12-04T21:06:46.645Z,11.50
2022-12-04T21:09:16.409Z,15.55
2022-12-04T21:11:45.821Z,14.10
2022-12-04T21:14:33.131Z,12.40
2022-12-04T21:17:01.747Z,14.10
2022-12-04T21:19:32.114Z,15.80
2022-12-04T21:22:00.273Z,15.98
2022-12-04T21:24:28.739Z,16.55
2022-12-04T21:26:56.953Z,15.05
2022-12-04T21:29:25.183Z,14.65
2022-12-04T21:31:53.067Z,15.88
2022-12-04T21:34:20.985Z,15.40
2022-12-04T21:36:50.279Z,15.50
2022-12-04T21:39:18.241Z,16.48
2022-12-04T21:42:03.933Z,16.65
2022-12-04T21:44:31.915Z,17.35
2022-12-04T21:46:59.781Z,17.88
2022-12-04T21:49:28.015Z,16.95
2022-12-04T21:51:58.678Z,17.67
2022-12-04T21:54:27.359Z,17.23
2022-12-04T21:56:55.562Z,18.55
2022-12-04T21:59:23.724Z,19.27
2022-12-04T22:01:51.968Z,17.50
2022-12-04T22:04:19.994Z,16.00
2022-12-04T22:06:47.946Z,17.02
2022-12-04T22:09:17.635Z,17.52
2022-12-04T22:11:45.935Z,18.33
2022-12-04T22:14:14.539Z,18.35
2022-12-04T22:16:43.368Z,17.85
2022-12-04T22:19:11.852Z,18.55
2022-12-04T22:21:40.511Z,18.13
2022-12-04T22:24:10.357Z,17.73
2022-12-04T22:26:40.106Z,19.88
2022-12-04T22:29:34.031Z,19.67
2022-12-04T22:31:56.033Z,19.42
2022-12-04T22:34:23.976Z,18.98
2022-12-04T22:36:51.910Z,18.50
2022-12-04T22:39:19.757Z,17.67
2022-12-04T22:41:49.132Z,17.90
2022-12-04T22:44:16.999Z,19.15
2022-12-04T22:46:44.817Z,16.88
2022-12-04T22:49:12.785Z,18.42
2022-12-04T22:51:40.660Z,18.83
2022-12-04T22:54:11.616Z,19.42
2022-12-04T22:56:39.562Z,17.48
2022-12-04T22:59:08.766Z,19.30
2022-12-04T23:01:36.691Z,19.52
2022-12-04T23:04:04.774Z,19.50
2022-12-04T23:06:33.964Z,18.92
2022-12-04T23:09:03.384Z,18.60
2022-12-04T23:11:31.315Z,18.95
2022-12-04T23:14:01.021Z,19.40
2022-12-04T23:16:31.344Z,19.13
2022-12-04T23:18:59.983Z,19.42
2022-12-04T23:21:28.505Z,21.95
2022-12-04T23:23:56.868Z,19.65
2022-12-04T23:26:27.882Z,20.70
2022-12-04T23:28:56.315Z,20.88
2022-12-04T23:31:24.273Z,19.05
2022-12-04T23:33:53.554Z,19.33
2022-12-04T23:36:21.855Z,22.50
2022-12-04T23:38:49.931Z,19.55
2022-12-04T23:41:19.577Z,21.05
2022-12-04T23:43:48.503Z,20.63
2022-12-04T23:46:17.888Z,20.23
2022-12-04T23:48:46.355Z,20.80
2022-12-04T23:51:17.020Z,21.38
2022-12-04T23:53:45.707Z,21.55
2022-12-04T23:56:16.608Z,20.48
2022-12-04T23:58:46.091Z,21.83
